createdAt,value
2022-10-09T00:00:57.827Z,4.4
2022-10-09T00:02:23.186Z,4.4
2022-10-09T00:03:23.155Z,4.4
2022-10-09T00:04:23.163Z,4.4
2022-10-09T00:05:23.177Z,4.4
2022-10-09T00:06:23.115Z,4.4
2022-10-09T00:07:23.131Z,4.4
2022-10-09T00:08:23.119Z,4.5
2022-10-09T00:09:23.137Z,4.5
2022-10-09T00:10:23.119Z,4.5
2022-10-09T00:11:23.133Z,4.5
2022-10-09T00:12:23.127Z,4.4
2022-10-09T00:13:24.826Z,4.5
2022-10-09T00:14:26.886Z,4.4
2022-10-09T00:15:29.839Z,4.4
2022-10-09T00:16:31.899Z,4.4
2022-10-09T00:17:33.835Z,4.5
2022-10-09T00:18:36.838Z,4.5
2022-10-09T00:19:38.885Z,4.5
2022-10-09T00:20:40.836Z,4.5
2022-10-09T00:21:42.842Z,4.5
2022-10-09T00:22:44.945Z,4.5
2022-10-09T00:23:46.838Z,4.5
2022-10-09T00:24:51.060Z,4.4
2022-10-09T00:25:51.840Z,4.4
2022-10-09T00:26:53.845Z,4.4
2022-10-09T00:27:55.872Z,4.4
2022-10-09T00:28:57.930Z,4.4
2022-10-09T00:29:59.913Z,4.4
2022-10-09T00:31:01.888Z,4.4
2022-10-09T00:32:05.852Z,4.4
2022-10-09T00:33:07.846Z,4.4
2022-10-09T00:34:09.922Z,4.4
2022-10-09T00:35:11.872Z,4.4
2022-10-09T00:36:13.849Z,4.4
2022-10-09T00:37:15.845Z,4.4
2022-10-09T00:39:19.856Z,4.4
2022-10-09T00:40:21.877Z,4.5
2022-10-09T00:41:23.857Z,4.5
2022-10-09T00:42:25.849Z,4.5
2022-10-09T00:43:27.858Z,4.5
2022-10-09T00:44:29.856Z,4.5
2022-10-09T00:45:31.922Z,4.5
2022-10-09T00:46:33.982Z,4.5
2022-10-09T00:47:36.861Z,4.6
2022-10-09T00:48:38.850Z,4.5
2022-10-09T00:49:40.858Z,4.5
2022-10-09T00:50:43.868Z,4.5
2022-10-09T00:51:45.857Z,4.5
2022-10-09T00:52:48.197Z,4.5
2022-10-09T00:53:49.862Z,4.4
2022-10-09T00:54:52.865Z,4.4
2022-10-09T00:55:54.888Z,4.4
2022-10-09T00:56:56.869Z,4.4
2022-10-09T00:57:58.860Z,4.4
2022-10-09T00:59:01.871Z,4.4
2022-10-09T01:00:05.875Z,4.4
2022-10-09T01:01:15.285Z,4.4
2022-10-09T01:02:14.932Z,4.4
2022-10-09T01:03:18.885Z,4.4
2022-10-09T01:04:20.890Z,4.4
2022-10-09T01:05:22.869Z,4.4
2022-10-09T01:06:24.893Z,4.4
2022-10-09T01:07:26.867Z,4.4
2022-10-09T01:08:28.867Z,4.5
2022-10-09T01:09:30.867Z,4.5
2022-10-09T01:10:33.869Z,4.5
2022-10-09T01:11:35.913Z,4.6
2022-10-09T01:12:38.873Z,4.6
2022-10-09T01:13:40.889Z,4.6
2022-10-09T01:14:42.871Z,4.6
2022-10-09T01:16:23.973Z,4.6
2022-10-09T01:17:23.498Z,4.7
2022-10-09T01:18:23.268Z,4.6
2022-10-09T01:19:23.304Z,4.6
2022-10-09T01:20:23.258Z,4.6
2022-10-09T01:21:23.266Z,4.6
2022-10-09T01:22:23.308Z,4.5
2022-10-09T01:23:23.260Z,4.5
2022-10-09T01:24:23.263Z,4.5
2022-10-09T01:25:23.266Z,4.6
2022-10-09T01:26:23.268Z,4.5
2022-10-09T01:27:23.473Z,4.5
2022-10-09T01:28:23.355Z,4.5
2022-10-09T01:29:23.266Z,4.5
2022-10-09T01:30:23.272Z,4.5
2022-10-09T01:31:23.305Z,4.4
2022-10-09T01:32:23.288Z,4.4
2022-10-09T01:33:23.281Z,4.4
2022-10-09T01:34:23.891Z,4.4
2022-10-09T01:36:40.445Z,4.3
2022-10-09T01:37:29.936Z,4.3
2022-10-09T01:40:36.892Z,4.3
2022-10-09T01:42:41.887Z,4.3
2022-10-09T01:43:43.896Z,4.3
2022-10-09T01:44:45.895Z,4.3
2022-10-09T01:45:47.898Z,4.3
2022-10-09T01:46:49.906Z,4.3
2022-10-09T01:47:51.895Z,4.3
2022-10-09T01:48:53.900Z,4.3
2022-10-09T01:49:55.915Z,4.3
2022-10-09T01:50:57.902Z,4.3
2022-10-09T01:51:59.894Z,4.3
2022-10-09T01:53:01.949Z,4.4
2022-10-09T01:54:03.905Z,4.4
2022-10-09T01:55:05.905Z,4.4
2022-10-09T01:56:23.283Z,4.4
2022-10-09T01:57:23.507Z,4.4
2022-10-09T01:58:23.287Z,4.4
2022-10-09T01:59:23.293Z,4.4
2022-10-09T02:00:23.296Z,4.4
2022-10-09T02:01:24.460Z,4.4
2022-10-09T02:02:23.460Z,4.4
2022-10-09T02:03:23.912Z,4.5
2022-10-09T02:04:25.942Z,4.4
2022-10-09T02:05:27.912Z,4.4
2022-10-09T02:06:29.911Z,4.4
2022-10-09T02:07:31.910Z,4.4
2022-10-09T02:08:33.908Z,4.3
2022-10-09T02:09:35.937Z,4.3
2022-10-09T02:10:38.942Z,4.3
2022-10-09T02:11:40.911Z,4.3
2022-10-09T02:12:42.911Z,4.3
2022-10-09T02:13:44.918Z,4.3
2022-10-09T02:14:46.916Z,4.3
2022-10-09T02:15:49.117Z,4.2
2022-10-09T02:16:50.909Z,4.2
2022-10-09T02:17:52.917Z,4.2
2022-10-09T02:18:54.923Z,4.2
2022-10-09T02:19:56.919Z,4.1
2022-10-09T02:20:59.148Z,4.1
2022-10-09T02:22:01.199Z,4.1
2022-10-09T02:23:03.925Z,4.2
2022-10-09T02:24:05.922Z,4.1
2022-10-09T02:25:07.927Z,4.1
2022-10-09T02:26:10.142Z,4.1
2022-10-09T02:27:11.919Z,4.1
2022-10-09T02:28:14.996Z,4.1
2022-10-09T02:29:17.923Z,4.1
2022-10-09T02:30:19.935Z,4.2
2022-10-09T02:31:22.035Z,4.2
2022-10-09T02:32:23.934Z,4.2
2022-10-09T02:33:25.929Z,4.2
2022-10-09T02:34:27.943Z,4.2
2022-10-09T02:35:29.926Z,4.1
2022-10-09T02:36:32.123Z,4.1
2022-10-09T02:37:33.928Z,4.1
2022-10-09T02:38:35.934Z,4.1
2022-10-09T02:39:38.927Z,4.1
2022-10-09T02:40:40.934Z,4
2022-10-09T02:41:43.954Z,4
2022-10-09T02:42:46.066Z,4
2022-10-09T02:43:47.932Z,4
2022-10-09T02:44:50.933Z,4
2022-10-09T02:45:52.932Z,4
2022-10-09T02:46:54.937Z,4
2022-10-09T02:47:56.945Z,4
2022-10-09T02:48:58.937Z,4
2022-10-09T02:50:01.181Z,4
2022-10-09T02:51:03.943Z,4
2022-10-09T02:52:05.944Z,4
2022-10-09T02:53:07.935Z,4
2022-10-09T02:54:09.943Z,4
2022-10-09T02:55:23.327Z,4
2022-10-09T02:56:23.327Z,4
2022-10-09T02:57:23.345Z,4
2022-10-09T02:58:23.333Z,4
2022-10-09T02:59:23.329Z,3.9
2022-10-09T03:00:23.986Z,3.9
2022-10-09T03:01:26.058Z,3.9
2022-10-09T03:02:28.032Z,3.9
2022-10-09T03:03:29.958Z,3.9
2022-10-09T03:04:31.966Z,3.9
2022-10-09T03:05:35.976Z,3.9
2022-10-09T03:06:37.994Z,4
2022-10-09T03:07:39.959Z,4
2022-10-09T03:08:41.966Z,4
2022-10-09T03:09:43.959Z,4
2022-10-09T03:10:45.963Z,4
2022-10-09T03:11:47.991Z,4
2022-10-09T03:12:50.356Z,4
2022-10-09T03:13:51.967Z,4
2022-10-09T03:14:53.963Z,4
2022-10-09T03:15:55.977Z,4
2022-10-09T03:16:57.964Z,4
2022-10-09T03:17:59.959Z,4
2022-10-09T03:19:01.963Z,4
2022-10-09T03:20:03.967Z,4
2022-10-09T03:21:05.999Z,4
2022-10-09T03:22:07.968Z,4
2022-10-09T03:23:09.968Z,4
2022-10-09T03:24:11.972Z,4
2022-10-09T03:25:13.976Z,4
2022-10-09T03:26:15.970Z,4
2022-10-09T03:27:17.984Z,4
2022-10-09T03:28:20.023Z,4
2022-10-09T03:29:21.972Z,4
2022-10-09T03:30:23.976Z,4
2022-10-09T03:31:50.460Z,4
2022-10-09T03:32:28.034Z,4
2022-10-09T03:33:29.980Z,4
2022-10-09T03:34:32.010Z,3.9
2022-10-09T03:35:35.975Z,3.9
2022-10-09T03:36:38.995Z,3.9
2022-10-09T03:37:40.978Z,4
2022-10-09T03:38:42.975Z,4
2022-10-09T03:39:45.009Z,4
2022-10-09T03:40:46.978Z,4
2022-10-09T03:41:48.987Z,4
2022-10-09T03:42:51.453Z,4
2022-10-09T03:43:52.981Z,4.1
2022-10-09T03:44:55.022Z,4.1
2022-10-09T03:46:00.897Z,4
2022-10-09T03:46:59.059Z,4
2022-10-09T03:48:01.143Z,4
2022-10-09T03:49:02.981Z,3.9
2022-10-09T03:50:04.987Z,3.9
2022-10-09T03:51:06.992Z,3.9
2022-10-09T03:52:09.183Z,3.9
2022-10-09T03:53:10.991Z,3.9
2022-10-09T03:54:12.987Z,3.8
2022-10-09T03:55:14.991Z,3.8
2022-10-09T03:56:16.983Z,3.8
2022-10-09T03:57:18.988Z,3.8
2022-10-09T03:58:20.995Z,3.7
2022-10-09T03:59:22.996Z,3.7
2022-10-09T04:00:25.006Z,3.6
2022-10-09T04:01:27.072Z,3.6
2022-10-09T04:02:29.074Z,3.6
2022-10-09T04:03:32.027Z,3.5
2022-10-09T04:04:34.997Z,3.5
2022-10-09T04:05:36.987Z,3.5
2022-10-09T04:06:38.996Z,3.5
2022-10-09T04:07:41.032Z,3.5
2022-10-09T04:08:43.003Z,3.5
2022-10-09T04:09:44.994Z,3.5
2022-10-09T04:10:46.998Z,3.5
2022-10-09T04:11:49.000Z,3.5
2022-10-09T04:12:51.490Z,3.5
2022-10-09T04:13:53.005Z,3.5
2022-10-09T04:14:56.096Z,3.5
2022-10-09T04:15:58.023Z,3.5
2022-10-09T04:17:00.003Z,3.5
2022-10-09T04:18:02.004Z,3.4
2022-10-09T04:19:04.007Z,3.4
2022-10-09T04:20:06.034Z,3.4
2022-10-09T04:21:08.099Z,3.5
2022-10-09T04:22:10.004Z,3.5
2022-10-09T04:23:12.019Z,3.5
2022-10-09T04:24:14.011Z,3.4
2022-10-09T04:25:16.034Z,3.4
2022-10-09T04:26:18.009Z,3.4
2022-10-09T04:27:20.007Z,3.4
2022-10-09T04:28:22.084Z,3.4
2022-10-09T04:29:24.012Z,3.4
2022-10-09T04:30:26.077Z,3.5
2022-10-09T04:31:28.050Z,3.5
2022-10-09T04:32:30.015Z,3.5
2022-10-09T04:33:32.032Z,3.5
2022-10-09T04:34:36.074Z,3.5
2022-10-09T04:35:38.018Z,3.5
2022-10-09T04:36:40.036Z,3.5
2022-10-09T04:37:42.016Z,3.5
2022-10-09T04:38:44.018Z,3.5
2022-10-09T04:39:46.020Z,3.5
2022-10-09T04:41:50.657Z,3.4
2022-10-09T04:43:23.483Z,3.4
2022-10-09T04:44:23.400Z,3.4
2022-10-09T04:45:23.456Z,3.4
2022-10-09T04:46:23.401Z,3.4
2022-10-09T04:47:23.407Z,3.4
2022-10-09T04:48:23.430Z,3.4
2022-10-09T04:49:23.409Z,3.4
2022-10-09T04:50:23.425Z,3.4
2022-10-09T04:51:23.411Z,3.4
2022-10-09T04:52:23.405Z,3.4
2022-10-09T04:53:24.449Z,3.4
2022-10-09T04:54:26.419Z,3.4
2022-10-09T04:55:28.425Z,3.4
2022-10-09T04:56:30.434Z,3.4
2022-10-09T04:57:32.425Z,3.4
2022-10-09T04:58:34.613Z,3.4
2022-10-09T04:59:36.426Z,3.4
2022-10-09T05:00:38.458Z,3.4
2022-10-09T05:01:40.503Z,3.4
2022-10-09T05:02:44.455Z,3.4
2022-10-09T05:03:47.453Z,3.4
2022-10-09T05:04:49.427Z,3.4
2022-10-09T05:05:51.462Z,3.4
2022-10-09T05:06:53.431Z,3.4
2022-10-09T05:07:56.431Z,3.4
2022-10-09T05:08:58.465Z,3.3
2022-10-09T05:11:02.437Z,3.3
2022-10-09T05:12:04.445Z,3.3
2022-10-09T05:13:06.454Z,3.3
2022-10-09T05:14:08.466Z,3.3
2022-10-09T05:15:10.610Z,3.3
2022-10-09T05:16:23.500Z,3.3
2022-10-09T05:17:23.825Z,3.3
2022-10-09T05:19:23.459Z,3.3
2022-10-09T05:23:29.278Z,3.2
2022-10-09T05:24:40.663Z,3.2
2022-10-09T05:25:33.267Z,3.2
2022-10-09T05:26:35.276Z,3.2
2022-10-09T05:27:38.271Z,3.2
2022-10-09T05:28:40.375Z,3.2
2022-10-09T05:29:42.311Z,3.2
2022-10-09T05:31:49.697Z,3.2
2022-10-09T05:32:49.591Z,3.2
2022-10-09T05:33:51.291Z,3.2
2022-10-09T05:34:53.305Z,3.1
2022-10-09T05:35:56.310Z,3.1
2022-10-09T05:36:59.368Z,3.1
2022-10-09T05:38:01.622Z,3.1
2022-10-09T05:39:03.312Z,3.1
2022-10-09T05:40:05.666Z,3.1
2022-10-09T05:41:07.293Z,3.1
2022-10-09T05:42:09.287Z,3.1
2022-10-09T05:43:11.287Z,3
2022-10-09T05:44:13.290Z,3
2022-10-09T05:45:15.359Z,3
2022-10-09T05:46:17.365Z,3
2022-10-09T05:47:19.295Z,3
2022-10-09T05:48:21.291Z,3
2022-10-09T05:49:23.299Z,3
2022-10-09T05:50:25.334Z,3
2022-10-09T05:51:27.299Z,3
2022-10-09T05:52:29.295Z,3
2022-10-09T05:53:31.293Z,3
2022-10-09T05:54:33.295Z,3
2022-10-09T05:55:35.319Z,3
2022-10-09T05:56:37.296Z,3
2022-10-09T05:57:39.316Z,3
2022-10-09T05:58:41.299Z,3
2022-10-09T05:59:43.340Z,3
2022-10-09T06:00:45.344Z,3
2022-10-09T06:01:47.393Z,3
2022-10-09T06:02:49.575Z,3
2022-10-09T06:03:51.425Z,3
2022-10-09T06:04:53.483Z,3
2022-10-09T06:05:56.473Z,3
2022-10-09T06:06:59.713Z,3
2022-10-09T06:08:04.469Z,3
2022-10-09T06:09:05.377Z,3
2022-10-09T06:10:05.517Z,3
2022-10-09T06:11:07.512Z,3
2022-10-09T06:12:09.364Z,3
2022-10-09T06:13:11.312Z,2.9
2022-10-09T06:14:13.309Z,2.9
2022-10-09T06:15:15.314Z,2.9
2022-10-09T06:16:17.434Z,2.9
2022-10-09T06:17:20.959Z,2.9
2022-10-09T06:18:21.364Z,2.9
2022-10-09T06:19:23.322Z,2.9
2022-10-09T06:20:26.265Z,2.8
2022-10-09T06:21:27.362Z,2.8
2022-10-09T06:22:29.309Z,2.8
2022-10-09T06:23:31.345Z,2.8
2022-10-09T06:24:33.327Z,2.8
2022-10-09T06:25:36.140Z,2.8
2022-10-09T06:26:37.393Z,2.8
2022-10-09T06:27:39.337Z,2.8
2022-10-09T06:28:41.409Z,2.8
2022-10-09T06:29:43.318Z,2.8
2022-10-09T06:30:45.406Z,2.8
2022-10-09T06:31:47.348Z,2.8
2022-10-09T06:32:49.540Z,2.8
2022-10-09T06:33:51.408Z,2.8
2022-10-09T06:34:53.346Z,2.8
2022-10-09T06:36:03.901Z,2.8
2022-10-09T06:36:59.321Z,2.9
2022-10-09T06:38:01.933Z,2.9
2022-10-09T06:39:04.054Z,2.9
2022-10-09T06:40:05.355Z,2.9
2022-10-09T06:41:07.320Z,2.9
2022-10-09T06:42:09.329Z,2.9
2022-10-09T06:43:11.366Z,3
2022-10-09T06:44:16.514Z,3
2022-10-09T06:45:15.335Z,3
2022-10-09T06:46:18.387Z,3
2022-10-09T06:47:20.342Z,3
2022-10-09T06:48:22.329Z,3
2022-10-09T06:49:25.329Z,3.1
2022-10-09T06:50:27.400Z,3.1
2022-10-09T06:51:29.374Z,3.1
2022-10-09T06:52:31.332Z,3.1
2022-10-09T06:53:33.364Z,3.1
2022-10-09T06:54:36.367Z,3.1
2022-10-09T06:55:38.337Z,3.1
2022-10-09T06:56:41.775Z,3.1
2022-10-09T06:57:43.333Z,3.2
2022-10-09T06:58:45.371Z,3.2
2022-10-09T06:59:47.760Z,3.2
2022-10-09T07:00:49.694Z,3.3
2022-10-09T07:01:52.562Z,3.3
2022-10-09T07:02:54.575Z,3.3
2022-10-09T07:03:56.384Z,3.3
2022-10-09T07:05:02.143Z,3.3
2022-10-09T07:06:07.357Z,3.3
2022-10-09T07:07:05.996Z,3.3
2022-10-09T07:08:07.342Z,3.3
2022-10-09T07:09:09.342Z,3.4
2022-10-09T07:10:11.384Z,3.4
2022-10-09T07:11:13.344Z,3.4
2022-10-09T07:12:15.345Z,3.4
2022-10-09T07:13:17.355Z,3.4
2022-10-09T07:14:19.360Z,3.3
2022-10-09T07:15:21.369Z,3.3
2022-10-09T07:16:23.428Z,3.4
2022-10-09T07:18:27.947Z,3.4
2022-10-09T07:21:33.988Z,3.4
2022-10-09T07:22:35.999Z,3.4
2022-10-09T07:23:38.023Z,3.5
2022-10-09T07:24:40.035Z,3.5
2022-10-09T07:25:42.802Z,3.5
2022-10-09T07:27:46.001Z,3.5
2022-10-09T07:28:48.122Z,3.5
2022-10-09T07:29:50.022Z,3.6
2022-10-09T07:30:53.768Z,3.6
2022-10-09T07:31:54.012Z,3.6
2022-10-09T07:32:58.013Z,3.7
2022-10-09T07:34:00.029Z,3.7
2022-10-09T07:35:07.400Z,3.7
2022-10-09T07:36:08.163Z,3.7
2022-10-09T07:37:11.070Z,3.8
2022-10-09T07:39:23.521Z,3.9
2022-10-09T07:40:23.552Z,3.9
2022-10-09T07:41:23.517Z,3.9
2022-10-09T07:42:23.549Z,3.9
2022-10-09T07:44:10.057Z,3.9
2022-10-09T07:44:24.134Z,4
2022-10-09T07:45:26.184Z,4
2022-10-09T07:46:33.017Z,4
2022-10-09T07:48:41.320Z,4
2022-10-09T07:49:36.836Z,4.1
2022-10-09T07:50:39.120Z,4.1
2022-10-09T07:52:42.853Z,4.2
2022-10-09T07:53:44.832Z,4.2
2022-10-09T07:54:46.839Z,4.3
2022-10-09T07:55:48.834Z,4.3
2022-10-09T07:56:50.832Z,4.4
2022-10-09T07:58:55.389Z,4.5
2022-10-09T08:03:03.939Z,4.5
2022-10-09T08:04:06.152Z,4.5
2022-10-09T08:05:08.862Z,4.6
2022-10-09T08:06:10.931Z,4.6
2022-10-09T08:07:12.884Z,4.6
2022-10-09T08:08:14.947Z,4.7
2022-10-09T08:09:19.000Z,4.7
2022-10-09T08:10:21.026Z,4.7
2022-10-09T08:11:24.023Z,4.8
2022-10-09T08:12:24.991Z,4.8
2022-10-09T08:13:27.084Z,4.9
2022-10-09T08:14:29.017Z,4.9
2022-10-09T08:16:24.852Z,5
2022-10-09T08:19:24.292Z,5.1
2022-10-09T08:21:45.720Z,5.2
2022-10-09T08:22:23.597Z,5.2
2022-10-09T08:23:23.637Z,5.3
2022-10-09T08:24:23.569Z,5.3
2022-10-09T08:25:23.621Z,5.4
2022-10-09T08:28:29.950Z,5.6
2022-10-09T08:29:35.539Z,5.6
2022-10-09T08:30:34.334Z,5.7
2022-10-09T08:31:36.497Z,5.7
2022-10-09T08:32:48.070Z,5.8
2022-10-09T08:33:44.462Z,5.9
2022-10-09T08:34:41.831Z,6
2022-10-09T08:35:44.579Z,6
2022-10-09T08:36:46.333Z,6.1
2022-10-09T08:37:48.471Z,6.2
2022-10-09T08:38:50.715Z,6.3
2022-10-09T08:39:52.321Z,6.3
2022-10-09T08:40:58.138Z,6.4
2022-10-09T08:41:56.441Z,6.5
2022-10-09T08:42:58.595Z,6.6
2022-10-09T08:44:04.368Z,6.7
2022-10-09T08:45:11.501Z,6.8
2022-10-09T08:46:04.638Z,6.9
2022-10-09T08:47:06.545Z,6.9
2022-10-09T08:49:10.707Z,7.1
2022-10-09T08:50:12.668Z,7.2
2022-10-09T08:51:24.594Z,7.3
2022-10-09T08:52:22.516Z,7.4
2022-10-09T08:53:22.673Z,7.5
2022-10-09T08:54:22.599Z,7.6
2022-10-09T08:55:24.834Z,7.7
2022-10-09T08:56:27.582Z,7.9
2022-10-09T08:57:28.582Z,8
2022-10-09T08:58:30.555Z,8.1
2022-10-09T08:59:32.529Z,8.2
2022-10-09T09:00:34.594Z,8.3
2022-10-09T09:01:36.606Z,8.3
2022-10-09T09:02:39.773Z,8.4
2022-10-09T09:03:41.391Z,8.5
2022-10-09T09:04:54.750Z,8.6
2022-10-09T09:05:57.255Z,8.7
2022-10-09T09:06:47.159Z,8.8
2022-10-09T09:07:49.592Z,9
2022-10-09T09:08:51.649Z,9
2022-10-09T09:09:53.566Z,9.1
2022-10-09T09:10:55.520Z,9.2
2022-10-09T09:12:59.844Z,9.5
2022-10-09T09:14:01.699Z,9.6
2022-10-09T09:15:03.598Z,9.7
2022-10-09T09:16:24.248Z,9.9
2022-10-09T09:17:24.428Z,10
2022-10-09T09:18:24.131Z,10.1
2022-10-09T09:19:24.305Z,10.2
2022-10-09T09:20:25.651Z,10.2
2022-10-09T09:21:24.281Z,10.3
2022-10-09T09:22:24.132Z,10.4
2022-10-09T09:23:24.303Z,10.5
2022-10-09T09:24:24.569Z,10.6
2022-10-09T09:25:26.748Z,10.6
2022-10-09T09:26:28.367Z,10.7
2022-10-09T09:28:32.896Z,10.9
2022-10-09T09:29:34.610Z,11
2022-10-09T09:30:36.557Z,11.1
2022-10-09T09:32:24.444Z,11.2
2022-10-09T09:33:24.251Z,11.3
2022-10-09T09:34:24.414Z,11.4
2022-10-09T09:35:24.446Z,11.5
2022-10-09T09:36:24.533Z,11.6
2022-10-09T09:38:05.498Z,11.7
2022-10-09T09:39:44.226Z,11.7
2022-10-09T09:40:36.053Z,11.9
2022-10-09T09:41:24.321Z,11.9
2022-10-09T09:42:24.304Z,12
2022-10-09T09:43:24.330Z,12.1
2022-10-09T09:44:24.118Z,12.1
2022-10-09T09:45:24.391Z,12.2
2022-10-09T09:46:24.256Z,12.3
2022-10-09T09:49:16.477Z,12.3
2022-10-09T09:50:45.695Z,12.3
2022-10-09T09:51:28.390Z,12.4
2022-10-09T09:52:24.256Z,12.5
2022-10-09T09:54:27.383Z,12.5
2022-10-09T09:55:38.962Z,12.5
2022-10-09T09:57:07.070Z,12.6
2022-10-09T09:57:42.878Z,12.6
2022-10-09T09:58:44.858Z,12.7
2022-10-09T09:59:37.447Z,12.7
2022-10-09T10:00:40.352Z,12.7
2022-10-09T10:01:51.949Z,12.7
2022-10-09T10:03:59.684Z,12.8
2022-10-09T10:04:48.009Z,12.8
2022-10-09T10:06:51.873Z,12.8
2022-10-09T10:07:53.720Z,12.9
2022-10-09T10:08:55.758Z,12.9
2022-10-09T10:09:57.746Z,12.9
2022-10-09T10:10:59.717Z,13
2022-10-09T10:12:02.620Z,13
2022-10-09T10:13:05.945Z,13
2022-10-09T10:14:05.771Z,13
2022-10-09T10:15:07.721Z,12.9
2022-10-09T10:16:16.941Z,13
2022-10-09T10:17:14.583Z,13
2022-10-09T10:18:13.724Z,12.9
2022-10-09T10:19:15.756Z,12.9
2022-10-09T10:20:19.739Z,13
2022-10-09T10:21:22.245Z,13
2022-10-09T10:22:24.245Z,13
2022-10-09T10:23:26.247Z,13
2022-10-09T10:24:28.288Z,13
2022-10-09T10:25:30.243Z,13.1
2022-10-09T10:26:32.239Z,13.1
2022-10-09T10:27:34.246Z,13.1
2022-10-09T10:28:36.349Z,13.2
2022-10-09T10:30:23.703Z,13.3
2022-10-09T10:31:23.698Z,13.3
2022-10-09T10:32:44.269Z,13.3
2022-10-09T10:33:46.253Z,13.3
2022-10-09T10:34:48.285Z,13.3
2022-10-09T10:35:50.289Z,13.3
2022-10-09T10:36:52.256Z,13.4
2022-10-09T10:37:55.257Z,13.4
2022-10-09T10:38:57.260Z,13.4
2022-10-09T10:40:01.147Z,13.5
2022-10-09T10:41:02.290Z,13.5
2022-10-09T10:42:04.259Z,13.5
2022-10-09T10:43:06.259Z,13.5
2022-10-09T10:48:23.709Z,13.5
2022-10-09T10:48:24.205Z,13.6
2022-10-09T10:52:35.953Z,13.8
2022-10-09T10:53:37.985Z,13.9
2022-10-09T10:54:39.912Z,13.9
2022-10-09T10:55:41.925Z,13.9
2022-10-09T10:56:44.959Z,13.9
2022-10-09T10:57:56.503Z,13.9
2022-10-09T10:58:50.562Z,13.8
2022-10-09T11:00:23.660Z,13.9
2022-10-09T11:01:23.742Z,13.9
2022-10-09T11:02:23.660Z,13.9
2022-10-09T11:03:23.756Z,13.9
2022-10-09T11:04:23.698Z,13.9
2022-10-09T11:05:23.674Z,13.8
2022-10-09T11:06:23.668Z,13.7
2022-10-09T11:07:23.679Z,13.8
2022-10-09T11:08:23.674Z,13.8
2022-10-09T11:09:23.702Z,13.8
2022-10-09T11:10:23.663Z,13.9
2022-10-09T11:11:23.706Z,13.9
2022-10-09T11:12:43.384Z,13.9
2022-10-09T11:13:23.703Z,13.9
2022-10-09T11:14:23.883Z,14
2022-10-09T11:15:25.147Z,13.9
2022-10-09T11:17:29.778Z,14
2022-10-09T11:18:31.783Z,14.1
2022-10-09T11:20:36.460Z,14.2
2022-10-09T11:21:39.433Z,14.2
2022-10-09T11:22:41.435Z,14.2
2022-10-09T11:23:43.455Z,14.3
2022-10-09T11:24:45.453Z,14.4
2022-10-09T11:25:48.429Z,14.4
2022-10-09T11:26:50.439Z,14.4
2022-10-09T11:27:52.442Z,14.5
2022-10-09T11:28:54.588Z,14.6
2022-10-09T11:29:56.508Z,14.7
2022-10-09T11:30:58.436Z,14.8
2022-10-09T11:32:01.547Z,15
2022-10-09T11:33:03.444Z,15.1
2022-10-09T11:34:05.648Z,15.2
2022-10-09T11:35:07.463Z,15.3
2022-10-09T11:36:09.437Z,15.4
2022-10-09T11:37:11.451Z,15.5
2022-10-09T11:38:13.443Z,15.6
2022-10-09T11:39:15.500Z,15.7
2022-10-09T11:40:17.472Z,15.8
2022-10-09T11:41:19.453Z,15.9
2022-10-09T11:42:21.452Z,16
2022-10-09T11:43:23.440Z,16.1
2022-10-09T11:44:25.474Z,16.2
2022-10-09T11:45:27.483Z,16.3
2022-10-09T11:46:29.440Z,16.5
2022-10-09T11:47:31.462Z,16.6
2022-10-09T11:48:33.454Z,16.7
2022-10-09T11:49:35.489Z,16.8
2022-10-09T11:50:37.459Z,17
2022-10-09T11:51:39.482Z,17.2
2022-10-09T11:52:42.477Z,17.3
2022-10-09T11:53:46.454Z,17.4
2022-10-09T11:54:48.455Z,17.6
2022-10-09T11:56:53.100Z,17.8
2022-10-09T11:57:55.109Z,18
2022-10-09T12:01:16.186Z,18.2
2022-10-09T12:01:16.696Z,18.2
2022-10-09T12:02:23.757Z,18.4
2022-10-09T12:03:23.624Z,18.4
2022-10-09T12:04:32.334Z,18.5
2022-10-09T12:05:23.619Z,18.6
2022-10-09T12:06:23.618Z,18.6
2022-10-09T12:07:23.698Z,18.6
2022-10-09T12:08:25.110Z,18.5
2022-10-09T12:09:27.115Z,18.5
2022-10-09T12:10:29.101Z,18.4
2022-10-09T12:11:31.122Z,18.2
2022-10-09T12:12:33.123Z,18.1
2022-10-09T12:13:35.122Z,17.9
2022-10-09T12:14:37.211Z,17.7
2022-10-09T12:16:23.761Z,17.2
2022-10-09T12:17:23.738Z,17
2022-10-09T12:18:23.742Z,16.8
2022-10-09T12:19:23.741Z,16.6
2022-10-09T12:20:50.163Z,16.4
2022-10-09T12:21:52.119Z,16.2
2022-10-09T12:23:14.342Z,16.1
2022-10-09T12:23:56.112Z,15.9
2022-10-09T12:24:58.124Z,15.8
2022-10-09T12:26:00.157Z,15.6
2022-10-09T12:27:04.134Z,15.5
2022-10-09T12:28:06.123Z,15.3
2022-10-09T12:29:08.129Z,15.2
2022-10-09T12:30:10.156Z,15.1
2022-10-09T12:31:12.194Z,15
2022-10-09T12:32:14.135Z,14.8
2022-10-09T12:33:16.130Z,14.8
2022-10-09T12:34:18.156Z,14.7
2022-10-09T12:35:20.132Z,14.7
2022-10-09T12:36:22.174Z,14.6
2022-10-09T12:37:24.259Z,14.5
2022-10-09T12:38:26.131Z,14.5
2022-10-09T12:39:40.983Z,14.4
2022-10-09T12:40:30.130Z,14.5
2022-10-09T12:41:32.157Z,14.5
2022-10-09T12:42:34.137Z,14.4
2022-10-09T12:43:36.135Z,14.5
2022-10-09T12:44:38.185Z,14.5
2022-10-09T12:45:40.191Z,14.4
2022-10-09T12:46:42.142Z,14.4
2022-10-09T12:47:45.153Z,14.4
2022-10-09T12:48:49.154Z,14.4
2022-10-09T12:50:23.790Z,14.3
2022-10-09T12:51:23.804Z,14.3
2022-10-09T12:54:39.190Z,14.3
2022-10-09T12:56:30.330Z,14.2
2022-10-09T12:57:32.281Z,14.2
2022-10-09T12:58:34.288Z,14.1
2022-10-09T12:59:36.323Z,14.1
2022-10-09T13:01:41.389Z,14.1
2022-10-09T13:02:43.433Z,14.1
2022-10-09T13:03:45.333Z,14.2
2022-10-09T13:04:49.494Z,14.2
2022-10-09T13:05:51.305Z,14.2
2022-10-09T13:07:55.486Z,14.1
2022-10-09T13:11:03.024Z,14.1
2022-10-09T13:13:07.909Z,14.1
2022-10-09T13:14:09.923Z,14.1
2022-10-09T13:15:14.009Z,14.1
2022-10-09T13:16:14.003Z,14.1
2022-10-09T13:17:15.927Z,14
2022-10-09T13:18:18.966Z,14
2022-10-09T13:19:28.975Z,14.1
2022-10-09T13:20:23.784Z,14
2022-10-09T13:21:24.936Z,14
2022-10-09T13:23:32.795Z,14
2022-10-09T13:24:33.714Z,14
2022-10-09T13:25:35.607Z,14
2022-10-09T13:26:37.621Z,14
2022-10-09T13:28:42.770Z,14
2022-10-09T13:29:46.557Z,14
2022-10-09T13:31:50.556Z,14
2022-10-09T13:32:52.545Z,14
2022-10-09T13:34:14.312Z,14
2022-10-09T13:35:23.777Z,14.1
2022-10-09T13:38:23.781Z,14
2022-10-09T13:39:27.636Z,13.9
2022-10-09T13:40:23.802Z,13.9
2022-10-09T13:41:23.787Z,13.9
2022-10-09T13:42:23.791Z,13.9
2022-10-09T13:43:23.790Z,13.9
2022-10-09T13:44:23.804Z,13.9
2022-10-09T13:45:23.787Z,13.8
2022-10-09T13:47:24.859Z,13.8
2022-10-09T13:48:25.558Z,13.8
2022-10-09T13:49:27.590Z,13.8
2022-10-09T13:50:29.575Z,13.8
2022-10-09T13:55:41.683Z,13.8
2022-10-09T13:56:46.576Z,13.7
2022-10-09T13:57:49.018Z,13.8
2022-10-09T13:58:51.573Z,13.8
2022-10-09T13:59:53.577Z,13.8
2022-10-09T14:00:55.611Z,13.8
2022-10-09T14:01:57.592Z,13.7
2022-10-09T14:02:59.581Z,13.7
2022-10-09T14:04:01.576Z,13.7
2022-10-09T14:05:03.607Z,13.7
2022-10-09T14:06:05.571Z,13.7
2022-10-09T14:07:07.577Z,13.7
2022-10-09T14:08:09.596Z,13.7
2022-10-09T14:09:11.617Z,13.8
2022-10-09T14:10:13.589Z,13.7
2022-10-09T14:11:15.751Z,13.7
2022-10-09T14:12:17.639Z,13.7
2022-10-09T14:13:19.586Z,13.7
2022-10-09T14:14:21.601Z,13.7
2022-10-09T14:15:23.592Z,13.7
2022-10-09T14:16:25.700Z,13.7
2022-10-09T14:17:27.586Z,13.6
2022-10-09T14:18:29.595Z,13.6
2022-10-09T14:19:31.587Z,13.6
2022-10-09T14:20:34.629Z,13.6
2022-10-09T14:21:37.591Z,13.6
2022-10-09T14:22:39.592Z,13.5
2022-10-09T14:23:41.591Z,13.6
2022-10-09T14:24:46.587Z,13.6
2022-10-09T14:25:48.627Z,13.5
2022-10-09T14:26:51.810Z,13.5
2022-10-09T14:27:54.596Z,13.5
2022-10-09T14:28:56.604Z,13.5
2022-10-09T14:29:58.640Z,13.5
2022-10-09T14:31:01.159Z,13.5
2022-10-09T14:32:02.627Z,13.5
2022-10-09T14:33:04.599Z,13.5
2022-10-09T14:34:06.609Z,13.5
2022-10-09T14:35:09.632Z,13.5
2022-10-09T14:36:11.631Z,13.5
2022-10-09T14:37:23.769Z,13.5
2022-10-09T14:47:36.256Z,13.5
2022-10-09T14:48:38.067Z,13.5
2022-10-09T14:50:23.844Z,13.4
2022-10-09T14:51:23.847Z,13.4
2022-10-09T14:52:23.846Z,13.4
2022-10-09T14:53:23.879Z,13.4
2022-10-09T14:54:23.848Z,13.4
2022-10-09T14:55:23.870Z,13.4
2022-10-09T14:56:23.845Z,13.4
2022-10-09T14:57:23.889Z,13.3
2022-10-09T14:58:23.848Z,13.4
2022-10-09T14:59:23.872Z,13.4
2022-10-09T15:00:23.849Z,13.3
2022-10-09T15:01:23.856Z,13.3
2022-10-09T15:02:24.022Z,13.3
2022-10-09T15:03:23.944Z,13.3
2022-10-09T15:04:23.853Z,13.3
2022-10-09T15:05:23.848Z,13.3
2022-10-09T15:06:23.855Z,13.3
2022-10-09T15:07:23.911Z,13.2
2022-10-09T15:08:23.859Z,13.2
2022-10-09T15:09:23.858Z,13.2
2022-10-09T15:10:24.164Z,13.2
2022-10-09T15:11:27.037Z,13.2
2022-10-09T15:12:29.028Z,13.2
2022-10-09T15:13:33.007Z,13.2
2022-10-09T15:14:35.000Z,13.2
2022-10-09T15:15:37.012Z,13.2
2022-10-09T15:17:41.012Z,13.2
2022-10-09T15:18:43.008Z,13.2
2022-10-09T15:19:45.010Z,13.1
2022-10-09T15:20:47.014Z,13.1
2022-10-09T15:21:49.018Z,13.1
2022-10-09T15:22:51.023Z,13
2022-10-09T15:24:43.781Z,13.1
2022-10-09T15:25:29.905Z,13
2022-10-09T15:26:23.896Z,13
2022-10-09T15:27:23.896Z,13
2022-10-09T15:28:23.934Z,13
2022-10-09T15:30:59.600Z,12.9
2022-10-09T15:34:21.259Z,12.9
2022-10-09T15:35:23.239Z,12.9
2022-10-09T15:36:38.050Z,12.7
2022-10-09T15:37:38.134Z,12.7
2022-10-09T15:38:31.243Z,12.6
2022-10-09T15:39:33.272Z,12.6
2022-10-09T15:40:35.268Z,12.6